首页
METAR-TAF:

METAR-TAF

机场 :

Bluefield, 西維吉尼亞州, 美国

纬度: 37-17-45N, 经度: 081-12-28W, 海拔: 871米

当前天气观测

该预报发布于1小时和5分钟前的00:52 UTC
风速3节,风向南转南东
温度 -1°C
湿度 31%
气压 1029 hPa
能見度: 16.1公里
天空无云

METAR: KBLF 230052Z AUTO 16003KT 10SM CLR M01/M16 A3038 RMK AO2 SLP317 T10111161

时间: 20:57 (01:57 UTC)

预报

该预报发布于2小时和4分钟前的23:53 UTC
预报有效从23日的 00点(UTC)到 23日的 24点(UTC)
风速7节,风向东南
能見度: 10公里
少量云层高于25000英尺
从 23日的 0400点(UTC)
风速7节,风向南转南东
能見度: 10公里
多云层高于20000英尺
从 23日的 1100点(UTC)
风速9节,风向
能見度: 10公里
多云层高于14000英尺
从 23日的 1400点(UTC)
风速12节,风向,有时为20节阵风
能見度: 10公里
多云层高于3500英尺
从 23日的 2000点(UTC)
风速14节,风向,有时为23节阵风
能見度: 6.4公里
阴天层高于2500英尺
小雨, 轻雾

TAF: KBLF 222353Z 2300/2324 14007KT P6SM FEW250 FM230400 16007KT P6SM BKN200 FM231100 18009KT P6SM BKN140 WS020/20040KT FM231400 18012G20KT P6SM BKN035 WS020/19045KT FM232000 18014G23KT 4SM -RA BR OVC025 WS020/19045KT

超过4000个机场的气象观测和天气预报(METAR&TAF报告)。

可查询的气象台以黄色和红色小点在地图上表示。

将鼠标移到小点上方,可查看气象台名称。

然后点击查看天气观测和预报。

如需切换地图:点击带黑十字的绿色按钮放大地图;点击带横线的绿色按钮缩小地图;或者点击绿色箭头查看邻近地区的地图。


METAR-TAF: